Time;durP1;ratioP1;P1;durP2;ratioP2;P2;SDS_P1;SDS_P2;PMS_P1;PMS_P2;Temp;Humidity;BMP_temperature;BMP_pressure;BME280_temperature;BME280_humidity;BME280_pressure;Samples;Min_cycle;Max_cycle;Signal;HPM_P1;HPM_P2
2022/04/18 00:01:34;;;;;;;8.75;5.13;;;;;;;3.45;65.13;101411.63;5053737;28;20041;-64
2022/04/18 00:04:00;;;;;;;10.82;6.28;;;;;;;3.47;64.81;101415.13;5054580;28;20036;-64
2022/04/18 00:06:25;;;;;;;12.60;5.43;;;;;;;3.46;64.89;101411.66;5054964;28;20029;-64
2022/04/18 00:08:51;;;;;;;13.95;5.38;;;;;;;3.49;64.86;101413.44;5054149;28;20055;-64
2022/04/18 00:11:16;;;;;;;7.32;4.90;;;;;;;3.48;64.70;101401.31;5053243;28;20041;-64
2022/04/18 00:13:41;;;;;;;10.18;5.43;;;;;;;3.43;65.18;101402.91;5055288;28;20048;-64
2022/04/18 00:16:07;;;;;;;10.68;4.97;;;;;;;3.38;65.21;101401.91;5054839;28;20495;-65
2022/04/18 00:18:32;;;;;;;9.25;5.05;;;;;;;3.36;65.08;101401.91;5052381;28;20045;-65
2022/04/18 00:20:58;;;;;;;8.27;4.97;;;;;;;3.38;65.29;101407.13;5055206;28;20033;-64
2022/04/18 00:23:23;;;;;;;10.25;5.40;;;;;;;3.40;65.17;101403.72;5053628;28;20033;-64
2022/04/18 00:25:49;;;;;;;10.32;5.35;;;;;;;3.34;65.34;101403.56;5054802;28;20120;-64
2022/04/18 00:28:15;;;;;;;9.77;5.30;;;;;;;3.38;65.24;101404.53;5052833;28;20111;-63
2022/04/18 00:30:41;;;;;;;8.88;5.25;;;;;;;3.39;65.23;101401.06;5052685;28;20063;-64
2022/04/18 00:33:09;;;;;;;10.02;6.20;;;;;;;3.42;65.14;101406.34;5053640;28;20056;-63
2022/04/18 00:35:34;;;;;;;9.25;5.57;;;;;;;3.38;65.21;101405.41;5054428;28;20074;-64
2022/04/18 00:38:00;;;;;;;9.32;5.80;;;;;;;3.44;65.17;101404.69;5054757;28;20036;-63
2022/04/18 00:40:25;;;;;;;8.20;4.75;;;;;;;3.44;64.84;101402.97;5053430;28;20068;-62
2022/04/18 00:42:51;;;;;;;6.60;4.47;;;;;;;3.45;64.73;101403.84;5053859;28;20048;-64
2022/04/18 00:45:16;;;;;;;7.88;4.20;;;;;;;3.46;64.64;101398.66;5054385;28;20182;-63
2022/04/18 00:47:41;;;;;;;6.50;4.10;;;;;;;3.49;64.55;101397.88;5052737;28;20041;-63
2022/04/18 00:50:07;;;;;;;10.18;5.32;;;;;;;3.46;64.72;101398.66;5054194;28;20037;-63
2022/04/18 00:52:35;;;;;;;6.50;4.05;;;;;;;3.52;64.59;101399.66;5054171;28;20041;-63
2022/04/18 00:55:02;;;;;;;7.20;4.13;;;;;;;3.48;65.05;101384.84;5053897;28;20086;-63
2022/04/18 00:57:28;;;;;;;7.05;4.70;;;;;;;3.46;64.90;101388.25;5053468;28;20041;-63
2022/04/18 00:59:54;;;;;;;7.53;4.20;;;;;;;3.43;65.10;101387.31;5054082;28;20389;-63
2022/04/18 01:02:19;;;;;;;9.32;4.40;;;;;;;3.43;65.18;101382.13;5053970;28;20120;-63
2022/04/18 01:04:45;;;;;;;8.25;4.40;;;;;;;3.46;65.12;101377.00;5053115;28;20037;-63
2022/04/18 01:07:12;;;;;;;5.88;3.78;;;;;;;3.52;64.80;101377.16;5054023;28;20029;-64
2022/04/18 01:09:38;;;;;;;7.95;3.85;;;;;;;3.53;64.66;101370.22;5053283;28;20033;-64
2022/04/18 01:12:04;;;;;;;8.48;4.57;;;;;;;3.51;64.83;101379.69;5054022;28;20029;-64
2022/04/18 01:14:29;;;;;;;6.35;4.32;;;;;;;3.51;65.10;101374.50;5053422;28;20086;-63
2022/04/18 01:16:55;;;;;;;7.90;4.20;;;;;;;3.48;65.20;101364.94;5053152;28;20120;-63
2022/04/18 01:19:20;;;;;;;8.73;4.75;;;;;;;3.43;65.75;101363.94;5053102;28;20077;-64
2022/04/18 01:21:46;;;;;;;6.82;4.13;;;;;;;3.43;65.31;101367.44;5053581;28;20128;-63
2022/04/18 01:29:39;;;;;;;8.70;4.47;;;;;;;3.37;65.80;101366.41;5053267;28;20048;-63
2022/04/18 01:32:05;;;;;;;8.55;4.65;;;;;;;3.34;65.88;101367.19;5053203;28;20033;-61
2022/04/18 01:34:31;;;;;;;8.20;4.85;;;;;;;3.28;66.10;101366.19;5052535;28;20041;-63
2022/04/18 01:36:56;;;;;;;8.38;4.60;;;;;;;3.29;66.31;101373.13;5051308;28;20529;-64
2022/04/18 01:39:22;;;;;;;8.55;4.70;;;;;;;3.29;66.29;101367.94;5053114;28;20396;-63
2022/04/18 01:41:47;;;;;;;9.65;4.78;;;;;;;3.31;66.31;101372.34;5053140;28;20033;-63
2022/04/18 01:44:13;;;;;;;9.27;5.38;;;;;;;3.25;66.78;101368.72;5052918;28;20468;-64
2022/04/18 01:46:38;;;;;;;9.15;4.50;;;;;;;3.21;66.76;101360.84;5052243;28;20037;-64
2022/04/18 01:49:04;;;;;;;7.68;4.35;;;;;;;3.17;67.03;101360.72;5052649;28;20484;-63
2022/04/18 01:51:29;;;;;;;7.05;4.28;;;;;;;3.19;66.68;101349.56;5052910;28;20045;-64
2022/04/18 01:53:54;;;;;;;7.60;4.50;;;;;;;3.19;66.88;101356.44;5052685;28;20041;-64
2022/04/18 01:56:20;;;;;;;8.45;4.95;;;;;;;3.16;66.93;101356.38;5052779;28;20031;-65
2022/04/18 01:58:45;;;;;;;7.90;4.40;;;;;;;3.16;66.75;101356.38;5052104;28;20035;-65
2022/04/18 02:01:11;;;;;;;9.00;5.07;;;;;;;3.18;66.94;101355.56;5053210;28;20116;-64
2022/04/18 02:03:43;;;;;;;8.57;4.70;;;;;;;3.15;66.97;101347.72;5052616;28;20033;-64
2022/04/18 02:06:09;;;;;;;7.40;4.72;;;;;;;3.12;67.20;101347.66;5052967;28;20483;-64
2022/04/18 02:08:35;;;;;;;9.88;4.80;;;;;;;3.09;67.53;101344.97;5051800;28;20040;-64
2022/04/18 02:11:01;;;;;;;7.65;4.22;;;;;;;3.07;67.58;101343.16;5051881;28;20029;-64
2022/04/18 02:13:28;;;;;;;6.05;3.97;;;;;;;3.09;67.34;101339.78;5052416;28;20089;-66
2022/04/18 02:15:57;;;;;;;6.10;3.90;;;;;;;3.11;67.30;101339.78;5049125;28;20036;-64
2022/04/18 02:18:23;;;;;;;6.72;4.03;;;;;;;3.08;67.76;101338.03;5051280;28;20045;-63
2022/04/18 02:20:48;;;;;;;7.40;4.93;;;;;;;3.07;67.67;101333.69;5050709;28;20040;-65
2022/04/18 02:23:14;;;;;;;7.53;4.20;;;;;;;3.06;67.74;101339.69;5050520;28;20476;-63
2022/04/18 02:25:39;;;;;;;7.47;4.53;;;;;;;3.03;68.03;101339.59;5051739;28;20053;-65
2022/04/18 02:28:05;;;;;;;6.35;4.20;;;;;;;3.03;67.93;101341.34;5052469;28;20059;-65
2022/04/18 02:30:30;;;;;;;8.02;4.43;;;;;;;3.00;67.85;101336.97;5052172;28;20037;-64
2022/04/18 02:32:56;;;;;;;5.80;3.67;;;;;;;2.98;68.08;101341.22;5049122;28;20041;-63
2022/04/18 02:35:26;;;;;;;6.35;4.35;;;;;;;2.95;68.35;101330.75;5051965;28;20524;-64
2022/04/18 02:37:52;;;;;;;5.38;3.65;;;;;;;2.94;68.22;101329.88;5052755;28;20061;-63
2022/04/18 02:40:18;;;;;;;7.95;4.18;;;;;;;2.95;68.31;101330.75;5052532;28;20033;-62
2022/04/18 02:42:44;;;;;;;6.97;3.80;;;;;;;2.92;68.30;101330.69;5051896;28;20126;-63
2022/04/18 02:45:14;;;;;;;6.53;3.70;;;;;;;2.93;68.50;101322.06;5051926;28;20116;-63
2022/04/18 02:47:40;;;;;;;8.18;4.60;;;;;;;2.92;68.41;101323.78;5052169;28;20476;-64
2022/04/18 02:50:07;;;;;;;7.10;4.30;;;;;;;2.93;68.68;101322.06;5051514;28;20047;-65
2022/04/18 02:52:33;;;;;;;6.72;3.78;;;;;;;2.96;68.37;101319.56;5052388;28;20029;-63
2022/04/18 02:54:58;;;;;;;6.38;3.75;;;;;;;2.97;68.08;101313.50;5045850;28;20045;-64
2022/04/18 02:57:24;;;;;;;7.32;4.07;;;;;;;2.91;68.45;101314.25;5051245;28;20405;-63
2022/04/18 02:59:49;;;;;;;11.48;4.60;;;;;;;2.91;68.51;101319.44;5051925;28;20154;-63
2022/04/18 03:02:15;;;;;;;9.02;4.05;;;;;;;2.91;68.51;101323.72;5051904;28;20028;-61
2022/04/18 03:04:40;;;;;;;8.52;4.88;;;;;;;2.88;68.62;101314.19;5051141;28;20433;-64
2022/04/18 03:07:06;;;;;;;8.35;5.10;;;;;;;2.83;69.05;101312.28;5051939;28;20114;-63
2022/04/18 03:09:31;;;;;;;8.88;4.15;;;;;;;2.79;68.87;101307.84;5052207;28;20472;-64
2022/04/18 03:11:57;;;;;;;9.25;4.68;;;;;;;2.81;68.85;101314.84;5049875;28;20082;-64
2022/04/18 03:14:24;;;;;;;7.30;4.20;;;;;;;2.80;68.87;101314.84;5051668;28;20597;-64
2022/04/18 03:16:49;;;;;;;5.53;3.88;;;;;;;2.72;69.33;101302.53;5052279;28;20033;-63
2022/04/18 03:19:15;;;;;;;6.30;4.03;;;;;;;2.76;68.98;101298.28;5051854;28;20102;-64
2022/04/18 03:21:40;;;;;;;7.97;4.38;;;;;;;2.77;69.33;101309.56;5051124;28;20033;-65
2022/04/18 03:24:06;;;;;;;6.80;3.75;;;;;;;2.76;69.30;101306.09;5052323;28;20113;-64
2022/04/18 03:26:32;;;;;;;6.15;3.15;;;;;;;2.81;69.28;101301.00;5050807;28;20373;-64
2022/04/18 03:28:57;;;;;;;8.25;3.78;;;;;;;2.83;68.84;101299.31;5052070;28;20021;-65
2022/04/18 03:31:23;;;;;;;7.40;3.90;;;;;;;2.88;68.75;101295.13;5050624;28;20033;-65
2022/04/18 03:33:48;;;;;;;6.40;3.63;;;;;;;2.91;68.43;101293.50;5051493;28;20029;-65
2022/04/18 03:41:41;;;;;;;8.77;4.72;;;;;;;2.89;68.88;101299.47;5055885;28;20110;-66
2022/04/18 03:44:07;;;;;;;7.43;4.45;;;;;;;2.92;68.51;101296.97;5054305;28;20033;-64
2022/04/18 03:46:32;;;;;;;7.43;4.50;;;;;;;2.91;68.80;101298.69;5054373;28;20040;-65
2022/04/18 03:48:58;;;;;;;7.70;4.53;;;;;;;2.91;69.27;101297.78;5055914;28;20439;-64
2022/04/18 03:51:23;;;;;;;9.02;4.15;;;;;;;2.95;69.32;101295.31;5054763;28;20477;-63
2022/04/18 03:53:49;;;;;;;8.13;4.18;;;;;;;3.01;69.00;101304.09;5054599;28;20036;-65
2022/04/18 03:56:15;;;;;;;5.75;3.80;;;;;;;3.11;68.56;101296.56;5055300;28;20493;-64
2022/04/18 03:58:40;;;;;;;8.07;4.32;;;;;;;3.13;68.39;101289.66;5055438;28;20035;-63
2022/04/18 04:01:05;;;;;;;8.70;4.40;;;;;;;3.12;68.43;101290.50;5055100;28;20366;-63
2022/04/18 04:03:31;;;;;;;5.10;3.40;;;;;;;3.16;68.02;101294.06;5053112;28;20110;-64
2022/04/18 04:05:56;;;;;;;6.35;4.18;;;;;;;3.13;68.40;101299.16;5055087;28;20033;-63
2022/04/18 04:08:25;;;;;;;8.38;4.45;;;;;;;3.15;68.03;101290.59;5054693;28;20063;-62
2022/04/18 04:10:51;;;;;;;9.07;4.65;;;;;;;3.21;68.17;101293.31;5054897;28;20033;-64
2022/04/18 04:13:17;;;;;;;10.32;4.90;;;;;;;3.22;68.53;101300.25;5054281;28;20115;-63
2022/04/18 04:15:43;;;;;;;8.00;4.80;;;;;;;3.31;68.16;101291.81;5055139;28;20159;-63
2022/04/18 04:18:09;;;;;;;7.80;4.80;;;;;;;3.34;68.33;101289.25;5055130;28;20078;-64
2022/04/18 04:20:35;;;;;;;6.28;4.40;;;;;;;3.44;67.85;101288.63;5053919;28;20162;-63
2022/04/18 04:23:00;;;;;;;8.77;4.45;;;;;;;3.48;67.59;101288.72;5055009;28;20032;-63
2022/04/18 04:25:26;;;;;;;7.90;4.80;;;;;;;3.58;67.53;101294.13;5052781;28;20457;-63
2022/04/18 04:27:51;;;;;;;8.63;4.32;;;;;;;3.74;67.08;101291.84;5054918;28;20075;-65
2022/04/18 04:30:17;;;;;;;8.93;4.88;;;;;;;3.77;67.52;101289.31;5054040;28;20140;-63
2022/04/18 04:32:42;;;;;;;8.52;4.35;;;;;;;3.84;67.16;101286.00;5054334;28;20464;-64
2022/04/18 04:35:08;;;;;;;7.22;4.20;;;;;;;3.82;67.42;101282.47;5054231;28;20029;-64
2022/04/18 04:37:33;;;;;;;7.10;3.78;;;;;;;3.87;67.74;101288.63;5053031;28;20040;-63
2022/04/18 04:39:59;;;;;;;7.10;3.92;;;;;;;3.94;67.21;101281.00;5055103;28;20408;-64
2022/04/18 04:42:24;;;;;;;7.82;4.18;;;;;;;4.01;67.53;101287.19;5054007;28;20106;-64
2022/04/18 04:44:49;;;;;;;6.95;4.07;;;;;;;4.11;67.28;101281.34;5052768;28;20033;-64
2022/04/18 04:47:15;;;;;;;7.25;3.85;;;;;;;4.16;67.29;101284.91;5053859;28;20116;-62
2022/04/18 04:49:40;;;;;;;8.32;3.90;;;;;;;4.22;67.62;101288.44;5052028;28;20431;-65
2022/04/18 04:52:06;;;;;;;6.00;3.45;;;;;;;4.37;67.18;101288.75;5053043;28;20040;-63
2022/04/18 04:54:32;;;;;;;8.57;4.57;;;;;;;4.46;66.77;101286.28;5054014;28;20044;-63
2022/04/18 04:56:58;;;;;;;9.50;4.30;;;;;;;4.54;67.47;101286.44;5054687;28;20079;-64
2022/04/18 04:59:23;;;;;;;10.35;4.15;;;;;;;4.66;66.76;101290.09;5053607;28;20532;-65
2022/04/18 05:01:48;;;;;;;6.93;4.60;;;;;;;4.75;66.78;101296.31;5054362;28;20033;-65
2022/04/18 05:04:14;;;;;;;7.97;5.05;;;;;;;4.87;66.69;101291.34;5046879;28;20037;-65
2022/04/18 05:06:40;;;;;;;6.18;4.60;;;;;;;4.89;67.34;101287.03;5052536;28;20061;-64
2022/04/18 05:09:06;;;;;;;7.00;4.13;;;;;;;5.03;66.96;101287.25;5054152;28;20087;-64
2022/04/18 05:11:32;;;;;;;6.60;4.00;;;;;;;5.21;65.96;101286.63;5052671;28;20464;-65
2022/04/18 05:13:57;;;;;;;6.80;4.53;;;;;;;5.27;66.16;101292.81;5053523;28;20041;-64
2022/04/18 05:16:24;;;;;;;7.47;3.92;;;;;;;5.38;66.17;101290.34;5051528;28;20562;-64
2022/04/18 05:18:49;;;;;;;5.53;3.30;;;;;;;5.46;66.21;101293.06;5054918;28;20069;-64
2022/04/18 05:21:15;;;;;;;6.05;3.67;;;;;;;5.52;66.17;101286.22;5049054;28;20125;-63
2022/04/18 05:23:40;;;;;;;6.35;3.40;;;;;;;5.66;65.78;101295.09;5054001;28;20037;-64
2022/04/18 05:26:06;;;;;;;7.22;3.30;;;;;;;5.73;65.89;101287.34;5053955;28;20107;-64
2022/04/18 05:28:32;;;;;;;3.92;2.80;;;;;;;5.75;66.19;101296.09;5053073;28;20037;-64
2022/04/18 05:30:57;;;;;;;7.15;3.40;;;;;;;5.84;66.13;101285.75;5056818;28;20116;-66
2022/04/18 05:33:23;;;;;;;7.70;3.55;;;;;;;5.99;65.49;101285.97;5049476;28;20523;-65
2022/04/18 05:35:49;;;;;;;6.53;2.92;;;;;;;6.02;65.84;101288.59;5052332;28;20068;-67
2022/04/18 05:38:15;;;;;;;7.22;2.95;;;;;;;6.20;65.33;101285.31;5053677;28;20032;-65
2022/04/18 05:40:41;;;;;;;5.32;3.25;;;;;;;6.19;65.54;101287.94;5051968;28;20033;-67
2022/04/18 05:43:08;;;;;;;4.70;2.80;;;;;;;6.30;65.25;101286.28;5053423;28;20484;-68
2022/04/18 05:45:36;;;;;;;7.28;3.00;;;;;;;6.39;65.37;101287.28;5052837;28;20476;-67
2022/04/18 05:48:01;;;;;;;5.47;3.00;;;;;;;6.50;64.85;101274.28;5051531;28;20111;-67
2022/04/18 05:50:27;;;;;;;5.00;3.10;;;;;;;6.55;64.96;101280.47;5056899;28;20166;-66
2022/04/18 05:52:52;;;;;;;4.65;2.72;;;;;;;6.60;64.58;101276.13;5053159;28;20039;-67
2022/04/18 05:55:17;;;;;;;5.00;2.80;;;;;;;6.78;64.36;101278.06;5032220;28;20029;-66
2022/04/18 05:57:43;;;;;;;7.15;3.00;;;;;;;6.95;63.57;101286.00;5051818;28;20043;-67
2022/04/18 06:00:09;;;;;;;5.75;3.03;;;;;;;7.01;63.55;101283.44;5053146;28;20029;-67
2022/04/18 06:02:34;;;;;;;7.35;2.95;;;;;;;7.13;63.18;101278.28;5052288;28;20036;-67
2022/04/18 06:05:00;;;;;;;6.20;3.10;;;;;;;7.23;62.89;101283.59;5052902;28;20115;-65
2022/04/18 06:07:25;;;;;;;6.60;3.00;;;;;;;7.36;62.21;101278.44;5051481;28;20041;-67
2022/04/18 06:09:51;;;;;;;5.15;3.08;;;;;;;7.39;62.19;101270.63;5053239;28;20408;-69
2022/04/18 06:12:20;;;;;;;4.63;2.83;;;;;;;7.60;61.45;101280.31;5053247;28;20472;-66
2022/04/18 06:14:46;;;;;;;5.55;3.03;;;;;;;7.77;61.06;101283.00;5050691;28;20029;-64
2022/04/18 06:17:11;;;;;;;3.53;2.40;;;;;;;7.95;60.65;101286.56;5052680;28;20063;-66
2022/04/18 06:19:36;;;;;;;5.82;2.80;;;;;;;8.00;60.18;101277.84;5052752;28;20132;-64
2022/04/18 06:22:03;;;;;;;5.85;2.60;;;;;;;8.13;59.63;101282.25;5051302;28;20131;-65
2022/04/18 06:24:28;;;;;;;5.47;3.20;;;;;;;8.13;59.37;101286.59;5051181;28;20069;-65
2022/04/18 06:26:54;;;;;;;4.53;3.05;;;;;;;8.26;59.01;101285.78;5053810;28;20538;-66
2022/04/18 06:29:19;;;;;;;5.55;2.85;;;;;;;8.44;58.69;101295.44;5051509;28;20040;-66
2022/04/18 06:31:46;;;;;;;5.40;2.63;;;;;;;8.53;58.18;101279.72;5052527;28;20033;-67
2022/04/18 06:34:12;;;;;;;6.35;3.50;;;;;;;8.66;57.89;101285.88;5053215;28;20128;-65
2022/04/18 06:36:38;;;;;;;6.53;3.75;;;;;;;8.80;57.55;101286.75;5053837;28;20036;-65
2022/04/18 06:39:03;;;;;;;7.60;3.70;;;;;;;8.92;57.26;101285.00;5053109;28;20305;-64
2022/04/18 06:41:29;;;;;;;7.90;2.95;;;;;;;9.00;56.25;101291.97;5051175;28;20033;-66
2022/04/18 06:43:54;;;;;;;5.85;2.90;;;;;;;9.13;56.06;101296.31;5053512;28;20124;-65
2022/04/18 06:46:20;;;;;;;7.32;4.03;;;;;;;9.24;55.35;101283.19;5052957;28;20059;-66
2022/04/18 06:48:45;;;;;;;7.57;3.67;;;;;;;9.34;55.07;101282.31;5053131;28;20072;-65
2022/04/18 06:51:11;;;;;;;6.43;3.42;;;;;;;9.37;55.02;101286.66;5052296;28;20033;-65
2022/04/18 06:53:36;;;;;;;5.10;3.35;;;;;;;9.35;54.71;101285.81;5053260;28;20060;-66
2022/04/18 06:58:45;;;;;;;4.15;2.67;;;;;;;9.57;54.12;101287.47;5052909;28;20043;-66
2022/04/18 07:01:11;;;;;;;6.65;3.50;;;;;;;9.63;53.22;101284.84;5052695;28;20123;-66
2022/04/18 07:03:36;;;;;;;5.85;2.90;;;;;;;9.81;52.44;101289.19;5053013;28;20040;-65
2022/04/18 07:06:02;;;;;;;4.28;2.88;;;;;;;9.86;51.90;101292.66;5053144;28;20469;-66
2022/04/18 07:08:27;;;;;;;6.00;2.88;;;;;;;10.02;51.11;101289.97;5052946;28;20037;-66
2022/04/18 07:10:53;;;;;;;4.95;2.97;;;;;;;10.02;50.81;101290.81;5052491;28;20095;-67
2022/04/18 07:13:18;;;;;;;5.65;3.05;;;;;;;10.21;50.72;101286.31;5053335;28;20465;-66
2022/04/18 07:15:44;;;;;;;6.55;3.20;;;;;;;10.36;50.51;101281.03;5055538;28;20040;-67
2022/04/18 07:18:09;;;;;;;5.43;3.10;;;;;;;10.44;50.69;101282.72;5038094;28;20040;-66
2022/04/18 07:20:35;;;;;;;5.95;2.80;;;;;;;10.57;50.34;101287.00;5053509;28;20136;-66
2022/04/18 07:23:00;;;;;;;5.18;2.63;;;;;;;10.73;49.06;101275.53;5054953;28;20130;-66
2022/04/18 07:25:26;;;;;;;6.63;4.00;;;;;;;10.87;48.91;101282.41;5054286;28;20041;-66
2022/04/18 07:27:52;;;;;;;5.53;3.47;;;;;;;10.95;48.46;101276.19;5052608;28;20462;-64
2022/04/18 07:30:17;;;;;;;5.55;2.97;;;;;;;11.01;48.25;101275.25;5053226;28;20036;-64
2022/04/18 07:32:43;;;;;;;6.03;3.53;;;;;;;11.14;47.72;101276.03;5051985;28;20043;-65
2022/04/18 07:35:10;;;;;;;5.53;3.13;;;;;;;11.23;46.88;101279.44;5049778;28;20803;-66
2022/04/18 07:37:37;;;;;;;7.60;4.35;;;;;;;11.31;45.77;101280.22;5054484;28;20040;-66
2022/04/18 07:40:03;;;;;;;7.80;4.40;;;;;;;11.37;44.77;101276.69;5053390;28;20029;-66
2022/04/18 07:42:28;;;;;;;8.82;5.57;;;;;;;11.43;43.69;101273.09;5055180;28;20029;-66
2022/04/18 07:44:54;;;;;;;7.85;4.72;;;;;;;11.40;44.22;101276.63;5053094;28;20045;-67
2022/04/18 07:47:20;;;;;;;8.93;3.88;;;;;;;11.44;43.63;101275.69;5050907;28;20029;-66
2022/04/18 07:49:45;;;;;;;5.88;3.80;;;;;;;11.47;43.23;101280.06;5054930;28;20045;-65
2022/04/18 07:52:12;;;;;;;7.82;3.95;;;;;;;11.47;43.47;101280.94;5051350;28;20506;-66
2022/04/18 07:54:38;;;;;;;6.82;3.83;;;;;;;11.59;43.62;101275.53;5055987;28;20043;-66
2022/04/18 07:57:04;;;;;;;6.97;4.63;;;;;;;11.67;43.86;101278.06;5054469;28;20033;-66
2022/04/18 07:59:30;;;;;;;16.25;10.70;;;;;;;11.71;42.45;101263.13;5060631;28;20039;-67
2022/04/18 08:01:56;;;;;;;8.25;5.25;;;;;;;11.84;41.75;101270.00;5054720;28;20033;-66
2022/04/18 08:04:21;;;;;;;7.00;3.95;;;;;;;11.84;42.25;101273.50;5056860;28;20036;-65
2022/04/18 08:06:47;;;;;;;8.80;4.30;;;;;;;11.79;41.36;101270.03;5055193;28;20073;-66
2022/04/18 08:09:12;;;;;;;5.38;3.58;;;;;;;11.88;41.22;101266.44;5045845;28;20029;-66
2022/04/18 08:11:37;;;;;;;7.50;3.78;;;;;;;12.00;41.22;101262.75;5054688;28;20044;-66
2022/04/18 08:14:03;;;;;;;6.28;3.40;;;;;;;12.05;40.94;101264.47;5054910;28;20025;-66
2022/04/18 08:16:28;;;;;;;6.13;3.95;;;;;;;12.04;39.86;101262.69;5054822;28;20436;-65
2022/04/18 08:18:55;;;;;;;8.02;4.03;;;;;;;11.96;39.72;101261.94;5052602;28;20083;-65
2022/04/18 08:21:20;;;;;;;7.57;3.90;;;;;;;11.90;40.01;101253.25;5051857;28;20045;-64
2022/04/18 08:23:48;;;;;;;6.38;3.20;;;;;;;11.94;38.15;101255.84;5054881;28;20060;-65
2022/04/18 08:26:13;;;;;;;6.35;3.42;;;;;;;11.99;37.65;101248.72;5054977;28;20067;-65
2022/04/18 08:28:39;;;;;;;4.35;2.80;;;;;;;12.02;37.86;101246.06;5055057;28;20076;-66
2022/04/18 08:31:06;;;;;;;5.18;3.28;;;;;;;12.03;37.81;101237.25;5055291;28;20055;-65
2022/04/18 08:33:31;;;;;;;4.50;3.13;;;;;;;12.26;38.40;101238.69;5055942;28;20060;-64
2022/04/18 08:35:58;;;;;;;5.38;3.30;;;;;;;12.33;38.82;101232.44;5054416;28;20396;-65
2022/04/18 08:38:25;;;;;;;6.57;3.60;;;;;;;12.36;39.42;101232.38;5055005;28;20389;-65
2022/04/18 08:40:55;;;;;;;5.70;3.55;;;;;;;12.49;39.39;101235.72;5055598;28;20037;-65
2022/04/18 08:43:20;;;;;;;4.93;3.20;;;;;;;12.56;39.07;101235.56;5055454;28;20483;-64
2022/04/18 08:45:47;;;;;;;4.72;2.97;;;;;;;12.68;38.19;101228.34;5053828;28;20076;-66
2022/04/18 08:53:41;;;;;;;4.43;2.45;;;;;;;12.22;34.95;101229.97;5054561;28;20523;-65
2022/04/18 08:56:06;;;;;;;8.15;2.97;;;;;;;12.25;36.28;101226.44;5053921;28;20053;-64
2022/04/18 08:58:32;;;;;;;4.13;2.55;;;;;;;12.37;36.71;101220.06;5054410;28;20045;-65
2022/04/18 09:00:59;;;;;;;6.65;3.50;;;;;;;12.17;36.05;101212.47;5054379;28;20028;-64
2022/04/18 09:03:25;;;;;;;4.47;2.55;;;;;;;12.48;36.12;101213.72;5053877;28;20111;-65
2022/04/18 09:06:06;;;;;;;3.08;2.13;;;;;;;12.49;35.16;101220.78;5053773;28;20516;-66
2022/04/18 09:08:52;;;;;;;4.90;2.58;;;;;;;12.45;34.21;101207.66;5054732;28;20036;-65
2022/04/18 09:11:29;;;;;;;3.17;1.90;;;;;;;12.56;33.72;101213.63;5054027;28;20116;-66
2022/04/18 09:14:06;;;;;;;4.68;2.38;;;;;;;12.51;35.87;101216.31;5054046;28;20645;-65
2022/04/18 09:16:32;;;;;;;6.15;2.90;;;;;;;12.65;35.96;101215.25;5053517;28;20033;-65
2022/04/18 09:19:14;;;;;;;2.72;1.88;;;;;;;12.46;33.74;101205.00;5053498;28;20059;-66
2022/04/18 09:22:03;;;;;;;4.10;2.25;;;;;;;12.69;35.37;101203.75;5047741;28;20455;-65
2022/04/18 09:24:36;;;;;;;3.08;1.55;;;;;;;12.95;35.92;101190.09;5067727;28;20033;-67
2022/04/18 09:27:06;;;;;;;5.22;1.80;;;;;;;12.89;35.14;101191.06;5051346;28;20029;-65
2022/04/18 09:29:38;;;;;;;2.63;1.70;;;;;;;12.84;35.54;101206.09;5052985;28;20053;-66
2022/04/18 09:32:10;;;;;;;2.92;2.08;;;;;;;12.88;35.34;101194.59;5053400;28;20465;-65
2022/04/18 09:34:36;;;;;;;2.67;1.63;;;;;;;12.73;35.55;101189.63;5053892;28;20025;-65
2022/04/18 09:37:17;;;;;;;3.83;2.00;;;;;;;12.63;35.24;101188.03;5051249;28;20351;-63
2022/04/18 09:39:44;;;;;;;3.10;1.88;;;;;;;12.46;35.74;101183.03;5047829;28;20048;-64
2022/04/18 09:42:11;;;;;;;4.72;2.58;;;;;;;12.42;35.41;101178.72;5052083;28;20123;-64
2022/04/18 09:44:39;;;;;;;3.65;2.15;;;;;;;12.44;35.09;101176.91;5053471;28;20068;-66
2022/04/18 09:47:05;;;;;;;4.00;2.03;;;;;;;12.55;35.10;101161.78;5054122;28;20120;-66
2022/04/18 09:49:40;;;;;;;6.43;2.92;;;;;;;12.64;34.86;101173.94;5053309;28;20108;-65
2022/04/18 09:52:08;;;;;;;4.57;2.60;;;;;;;12.74;34.28;101164.97;5052880;28;20029;-65
2022/04/18 09:54:33;;;;;;;5.82;2.03;;;;;;;12.62;34.78;101170.47;5051935;28;20182;-65
2022/04/18 09:57:05;;;;;;;5.50;2.30;;;;;;;12.42;34.25;101165.53;5052905;28;20032;-65
2022/04/18 09:59:31;;;;;;;4.15;2.15;;;;;;;12.45;33.76;101153.19;5052955;28;20108;-65
2022/04/18 10:01:57;;;;;;;3.70;2.10;;;;;;;12.31;33.45;101152.53;5053156;28;20162;-65
2022/04/18 10:04:24;;;;;;;4.28;2.17;;;;;;;12.49;33.74;101143.47;5051641;28;20488;-65
2022/04/18 10:06:52;;;;;;;6.10;2.83;;;;;;;12.54;34.46;101150.38;5053002;28;20082;-65
2022/04/18 10:09:19;;;;;;;5.47;2.53;;;;;;;12.78;34.31;101145.56;5053248;28;20044;-66
2022/04/18 10:11:45;;;;;;;3.58;1.85;;;;;;;12.62;33.54;101138.84;5051859;28;20666;-65
2022/04/18 10:14:11;;;;;;;4.35;1.80;;;;;;;12.42;32.44;101142.69;5052853;28;20068;-66
2022/04/18 10:16:38;;;;;;;4.03;1.73;;;;;;;12.63;33.00;101116.84;5052894;28;20040;-66
2022/04/18 10:19:19;;;;;;;3.75;1.63;;;;;;;12.91;33.34;101120.69;5052750;28;20044;-66
2022/04/18 10:21:52;;;;;;;4.50;2.10;;;;;;;13.21;33.80;101124.50;5053371;28;20040;-64
2022/04/18 10:24:29;;;;;;;3.58;2.15;;;;;;;13.21;32.55;101127.13;5051306;28;20484;-65
2022/04/18 10:27:05;;;;;;;3.97;2.08;;;;;;;12.80;32.19;101139.34;5051460;28;20032;-65
2022/04/18 10:29:36;;;;;;;4.28;2.03;;;;;;;12.82;32.57;101121.75;5051529;28;20036;-66
2022/04/18 10:32:04;;;;;;;3.63;1.85;;;;;;;12.83;32.53;101112.06;5050138;28;20124;-67
2022/04/18 10:34:33;;;;;;;7.43;2.03;;;;;;;12.86;32.69;101111.16;5052776;28;20090;-67
2022/04/18 10:37:04;;;;;;;3.88;2.10;;;;;;;13.02;32.99;101116.06;5051482;28;20182;-66
2022/04/18 10:39:34;;;;;;;3.33;1.85;;;;;;;13.32;32.94;101111.09;5054657;28;20495;-67
2022/04/18 10:42:18;;;;;;;4.25;1.98;;;;;;;13.52;32.29;101108.91;5058722;28;20033;-67
2022/04/18 10:44:57;;;;;;;4.65;2.25;;;;;;;13.50;32.18;101105.41;5051289;28;20040;-67
2022/04/18 10:47:23;;;;;;;3.92;2.10;;;;;;;13.14;32.71;101100.91;5071845;28;20032;-67
2022/04/18 10:50:14;;;;;;;5.47;2.30;;;;;;;12.92;32.40;101103.09;5057139;28;20178;-65
2022/04/18 10:52:40;;;;;;;2.70;1.70;;;;;;;13.04;32.28;101098.44;5054710;28;20025;-66
2022/04/18 10:55:05;;;;;;;2.33;1.55;;;;;;;13.04;32.28;101085.25;5056692;28;20029;-64
2022/04/18 10:57:32;;;;;;;4.97;2.20;;;;;;;13.12;32.01;101090.34;5056481;28;20045;-66
2022/04/18 10:59:57;;;;;;;3.78;1.95;;;;;;;13.12;31.70;101105.31;5055014;28;20033;-64
2022/04/18 11:02:39;;;;;;;3.35;1.80;;;;;;;12.94;30.51;101093.41;5057066;28;20041;-66
2022/04/18 11:05:06;;;;;;;3.78;1.88;;;;;;;12.94;31.73;101091.63;5057038;28;20037;-64
2022/04/18 11:07:43;;;;;;;3.35;2.03;;;;;;;12.84;31.11;101097.97;5056071;28;20041;-64
2022/04/18 11:10:23;;;;;;;2.70;1.75;;;;;;;12.97;31.10;101086.28;5050631;28;20033;-65
2022/04/18 11:12:50;;;;;;;3.70;2.10;;;;;;;13.13;31.40;101073.66;5056138;28;20124;-66
2022/04/18 11:15:17;;;;;;;3.42;1.65;;;;;;;13.26;31.08;101079.56;5055922;28;20045;-66
2022/04/18 11:17:42;;;;;;;2.97;1.38;;;;;;;13.02;29.68;101089.69;5056326;28;20033;-67
2022/04/18 11:20:24;;;;;;;3.03;1.63;;;;;;;12.98;29.42;101077.47;5055304;28;20459;-66
2022/04/18 11:23:15;;;;;;;3.90;1.75;;;;;;;12.81;29.93;101066.41;5061709;28;20052;-66
2022/04/18 11:26:00;;;;;;;3.88;1.83;;;;;;;12.87;29.99;101076.81;5036931;28;20034;-66
2022/04/18 11:28:35;;;;;;;3.00;1.80;;;;;;;13.01;29.82;101084.47;5056722;28;20414;-65
2022/04/18 11:31:01;;;;;;;3.33;1.83;;;;;;;12.98;30.22;101095.06;5076802;28;20033;-66
2022/04/18 11:33:26;;;;;;;2.78;1.65;;;;;;;12.93;29.91;101071.44;5077174;28;20085;-68
2022/04/18 11:35:59;;;;;;;3.10;1.38;;;;;;;12.69;28.23;101066.66;5061499;28;20032;-67
2022/04/18 11:38:25;;;;;;;2.30;1.40;;;;;;;12.62;28.83;101065.03;5056728;28;20051;-65
2022/04/18 11:40:50;;;;;;;3.88;1.58;;;;;;;12.84;29.39;101053.13;5056723;28;20447;-67
2022/04/18 11:43:17;;;;;;;2.30;1.50;;;;;;;12.76;29.05;101061.19;5056423;28;20137;-68
2022/04/18 11:45:43;;;;;;;3.38;1.60;;;;;;;12.52;29.05;101066.94;5056630;28;20601;-66
2022/04/18 11:48:13;;;;;;;3.55;1.20;;;;;;;12.70;28.77;101042.00;5057624;28;20033;-66